createdAt,value
2018-01-20T00:00:11.234Z,28.60
2018-01-20T00:01:11.029Z,29.00
2018-01-20T00:02:11.716Z,28.80
2018-01-20T00:03:11.034Z,29.30
2018-01-20T00:04:11.422Z,29.50
2018-01-20T00:05:10.837Z,28.20
2018-01-20T00:06:11.344Z,29.60
2018-01-20T00:07:10.996Z,31.90
2018-01-20T00:08:11.942Z,30.10
2018-01-20T00:09:11.762Z,30.40
2018-01-20T00:10:11.672Z,30.50
2018-01-20T00:11:11.202Z,33.00
2018-01-20T00:12:10.953Z,31.50
2018-01-20T00:13:11.671Z,33.50
2018-01-20T00:14:11.093Z,33.40
2018-01-20T00:15:12.763Z,34.90
2018-01-20T00:16:11.400Z,32.10
2018-01-20T00:17:11.455Z,29.30
2018-01-20T00:18:10.951Z,30.10
2018-01-20T00:19:11.969Z,29.90
2018-01-20T00:20:11.332Z,31.10
2018-01-20T00:21:10.736Z,31.70
2018-01-20T00:22:11.619Z,31.10
2018-01-20T00:23:11.403Z,31.00
2018-01-20T00:24:10.620Z,31.40
2018-01-20T00:25:11.520Z,30.30
2018-01-20T00:26:11.341Z,31.50
2018-01-20T00:27:11.036Z,32.10
2018-01-20T00:28:11.947Z,32.20
2018-01-20T00:29:11.737Z,32.10
2018-01-20T00:30:11.644Z,32.00
2018-01-20T00:31:11.798Z,33.30
2018-01-20T00:32:11.188Z,34.10
2018-01-20T00:33:11.511Z,34.00
2018-01-20T00:34:11.394Z,32.10
2018-01-20T00:35:32.307Z,33.10
2018-01-20T00:36:32.850Z,34.40
2018-01-20T00:37:33.184Z,34.80
2018-01-20T00:38:32.546Z,33.10
2018-01-20T00:39:33.260Z,33.70
2018-01-20T00:40:32.671Z,34.80
2018-01-20T00:41:33.387Z,35.30
2018-01-20T00:42:32.896Z,35.40
2018-01-20T00:43:33.678Z,36.90
2018-01-20T00:44:32.889Z,36.10
2018-01-20T00:45:32.260Z,34.70
2018-01-20T00:46:32.540Z,36.80
2018-01-20T00:47:33.115Z,36.60
2018-01-20T00:48:32.260Z,32.80
2018-01-20T00:49:32.981Z,35.30
2018-01-20T00:50:32.249Z,36.30
2018-01-20T00:51:33.184Z,36.40
2018-01-20T00:52:32.434Z,36.00
2018-01-20T00:53:32.791Z,35.50
2018-01-20T00:54:54.098Z,35.40
2018-01-20T00:55:54.576Z,36.10
2018-01-20T00:56:54.046Z,33.90
2018-01-20T00:57:54.367Z,37.00
2018-01-20T00:58:54.986Z,34.90
2018-01-20T00:59:54.347Z,34.90
2018-01-20T01:00:53.562Z,34.80
2018-01-20T01:01:54.035Z,32.50
2018-01-20T01:02:54.840Z,31.70
2018-01-20T01:03:54.596Z,31.60
2018-01-20T01:04:54.006Z,32.10
2018-01-20T01:05:54.853Z,33.70
2018-01-20T01:06:54.693Z,29.50
2018-01-20T01:07:54.291Z,29.60
2018-01-20T01:08:53.609Z,30.10
2018-01-20T01:09:54.086Z,29.80
2018-01-20T01:10:54.567Z,27.90
2018-01-20T01:11:54.375Z,26.60
2018-01-20T01:12:53.588Z,26.80
2018-01-20T01:14:16.038Z,28.80
2018-01-20T01:15:16.285Z,27.50
2018-01-20T01:16:16.381Z,27.10
2018-01-20T01:17:16.912Z,28.30
2018-01-20T01:18:37.816Z,28.40
2018-01-20T01:19:38.137Z,27.10
2018-01-20T01:20:38.844Z,29.90
2018-01-20T01:21:37.988Z,30.50
2018-01-20T01:22:39.772Z,29.30
2018-01-20T01:23:38.443Z,30.10
2018-01-20T01:24:38.207Z,30.80
2018-01-20T01:25:39.229Z,29.30
2018-01-20T01:26:38.703Z,28.60
2018-01-20T01:27:38.119Z,29.00
2018-01-20T01:28:38.866Z,27.80
2018-01-20T01:29:38.185Z,28.40
2018-01-20T01:30:39.075Z,28.00
2018-01-20T01:31:38.743Z,27.90
2018-01-20T01:32:38.443Z,28.90
2018-01-20T01:33:38.752Z,29.30
2018-01-20T01:34:38.080Z,27.80
2018-01-20T01:35:38.881Z,31.30
2018-01-20T01:36:38.415Z,28.10
2018-01-20T01:37:38.713Z,28.60
2018-01-20T01:38:38.530Z,30.20
2018-01-20T01:39:38.089Z,30.90
2018-01-20T01:40:38.567Z,32.70
2018-01-20T01:41:38.318Z,30.80
2018-01-20T01:42:38.950Z,31.80
2018-01-20T01:43:38.538Z,35.20
2018-01-20T01:44:38.309Z,32.70
2018-01-20T01:45:37.651Z,33.30
2018-01-20T01:46:38.165Z,34.50
2018-01-20T01:47:38.391Z,31.80
2018-01-20T01:48:38.891Z,32.90
2018-01-20T01:49:38.353Z,31.60
2018-01-20T01:50:38.587Z,33.80
2018-01-20T01:51:38.500Z,33.70
2018-01-20T01:52:37.837Z,33.90
2018-01-20T01:53:38.683Z,33.80
2018-01-20T01:54:38.152Z,35.10
2018-01-20T01:55:38.879Z,36.90
2018-01-20T01:56:38.110Z,36.10
2018-01-20T01:57:38.739Z,35.50
2018-01-20T01:58:38.281Z,34.00
2018-01-20T01:59:39.002Z,33.10
2018-01-20T02:00:38.860Z,33.20
2018-01-20T02:01:59.524Z,31.60
2018-01-20T02:03:00.066Z,32.00
2018-01-20T02:04:00.588Z,32.90
2018-01-20T02:05:21.590Z,32.70
2018-01-20T02:06:22.283Z,31.30
2018-01-20T02:07:43.466Z,31.00
2018-01-20T02:08:43.993Z,30.20
2018-01-20T02:09:43.570Z,32.30
2018-01-20T02:10:44.137Z,30.90
2018-01-20T02:11:43.891Z,30.20
2018-01-20T02:12:43.260Z,28.80
2018-01-20T02:13:43.822Z,30.30
2018-01-20T02:14:43.583Z,28.50
2018-01-20T02:15:43.389Z,29.00
2018-01-20T02:16:44.048Z,26.80
2018-01-20T02:17:43.430Z,31.90
2018-01-20T02:18:44.129Z,30.90
2018-01-20T02:19:43.659Z,30.60
2018-01-20T02:20:43.737Z,28.60
2018-01-20T02:21:43.352Z,27.40
2018-01-20T02:22:43.764Z,27.20
2018-01-20T02:23:43.164Z,29.00
2018-01-20T02:24:43.881Z,29.40
2018-01-20T02:25:43.472Z,29.80
2018-01-20T02:26:43.803Z,29.90
2018-01-20T02:27:43.244Z,31.20
2018-01-20T02:28:44.108Z,29.70
2018-01-20T02:29:43.778Z,29.30
2018-01-20T02:30:43.284Z,30.40
2018-01-20T02:31:43.545Z,30.40
2018-01-20T02:32:44.422Z,30.40
2018-01-20T02:33:43.574Z,28.20
2018-01-20T02:34:44.097Z,27.80
2018-01-20T02:35:43.172Z,29.10
2018-01-20T02:36:43.730Z,28.60
2018-01-20T02:37:43.147Z,28.10
2018-01-20T02:38:43.900Z,28.60
2018-01-20T02:39:43.335Z,26.50
2018-01-20T02:40:44.135Z,24.70
2018-01-20T02:41:43.791Z,26.30
2018-01-20T02:42:43.045Z,26.90
2018-01-20T02:43:43.355Z,25.20
2018-01-20T02:44:43.553Z,26.70
2018-01-20T02:45:44.111Z,26.40
2018-01-20T02:46:43.246Z,27.10
2018-01-20T02:47:43.780Z,25.00
2018-01-20T02:49:04.667Z,25.70
2018-01-20T02:50:04.975Z,25.20
2018-01-20T02:51:05.277Z,23.40
2018-01-20T02:52:25.581Z,23.90
2018-01-20T02:53:26.075Z,24.30
2018-01-20T02:54:26.699Z,24.60
2018-01-20T02:55:26.243Z,24.40
2018-01-20T02:56:26.772Z,26.40
2018-01-20T02:57:26.561Z,24.60
2018-01-20T02:58:26.076Z,24.70
2018-01-20T02:59:26.799Z,24.50
2018-01-20T03:00:26.391Z,24.30
2018-01-20T03:01:25.919Z,23.80
2018-01-20T03:02:26.207Z,23.80
2018-01-20T03:03:25.751Z,24.10
2018-01-20T03:04:25.898Z,23.00
2018-01-20T03:05:26.455Z,23.30
2018-01-20T03:06:25.678Z,23.80
2018-01-20T03:07:25.947Z,22.70
2018-01-20T03:08:26.559Z,24.60
2018-01-20T03:09:25.938Z,22.80
2018-01-20T03:10:26.127Z,23.00
2018-01-20T03:11:26.905Z,21.20
2018-01-20T03:12:26.331Z,23.00
2018-01-20T03:13:26.564Z,21.80
2018-01-20T03:14:26.193Z,23.30
2018-01-20T03:15:27.010Z,22.40
2018-01-20T03:16:26.222Z,23.50
2018-01-20T03:17:26.444Z,23.10
2018-01-20T03:18:25.616Z,23.00
2018-01-20T03:19:25.967Z,23.20
2018-01-20T03:20:26.214Z,23.60
2018-01-20T03:21:26.887Z,22.70
2018-01-20T03:22:26.142Z,23.40
2018-01-20T03:23:25.789Z,21.20
2018-01-20T03:24:26.619Z,20.60
2018-01-20T03:25:47.584Z,21.20
2018-01-20T03:26:48.399Z,20.40
2018-01-20T03:27:47.977Z,21.00
2018-01-20T03:28:48.652Z,20.20
2018-01-20T03:29:48.444Z,19.60
2018-01-20T03:30:48.095Z,17.80
2018-01-20T03:31:47.595Z,18.90
2018-01-20T03:32:48.081Z,17.20
2018-01-20T03:33:48.486Z,16.40
2018-01-20T03:34:48.296Z,15.70
2018-01-20T03:35:47.668Z,16.50
2018-01-20T03:37:09.120Z,16.70
2018-01-20T03:38:09.579Z,17.80
2018-01-20T03:39:10.183Z,18.90
2018-01-20T03:40:31.175Z,17.90
2018-01-20T03:41:31.566Z,20.20
2018-01-20T03:42:32.356Z,18.50
2018-01-20T03:43:32.089Z,19.00
2018-01-20T03:44:31.951Z,17.70
2018-01-20T03:45:31.706Z,20.00
2018-01-20T03:46:32.486Z,20.10
2018-01-20T03:47:32.138Z,20.20
2018-01-20T03:48:31.926Z,23.40
2018-01-20T03:49:52.708Z,22.70
2018-01-20T03:50:52.967Z,21.40
2018-01-20T03:51:53.269Z,21.30
2018-01-20T03:52:53.262Z,20.50
2018-01-20T03:53:52.879Z,19.60
2018-01-20T03:54:53.476Z,18.00
2018-01-20T03:55:52.681Z,17.70
2018-01-20T03:56:53.006Z,16.30
2018-01-20T03:57:53.915Z,16.00
2018-01-20T03:58:53.363Z,14.50
2018-01-20T03:59:53.089Z,12.70
2018-01-20T04:00:52.999Z,12.40
2018-01-20T04:01:53.721Z,11.70
2018-01-20T04:02:53.484Z,11.60
2018-01-20T04:03:53.088Z,12.10
2018-01-20T04:04:53.486Z,11.20
2018-01-20T04:05:52.888Z,11.10
2018-01-20T04:06:53.724Z,11.60
2018-01-20T04:07:53.543Z,12.30
2018-01-20T04:08:52.794Z,10.70
2018-01-20T04:09:53.050Z,11.90
2018-01-20T04:10:53.642Z,12.00
2018-01-20T04:11:53.385Z,12.90
2018-01-20T04:12:53.246Z,11.50
2018-01-20T04:13:54.239Z,13.20
2018-01-20T04:14:52.672Z,12.70
2018-01-20T04:15:53.766Z,13.50
2018-01-20T04:16:53.312Z,13.60
2018-01-20T04:17:52.692Z,14.20
2018-01-20T04:18:53.071Z,13.20
2018-01-20T04:19:53.618Z,14.70
2018-01-20T04:20:53.156Z,14.40
2018-01-20T04:22:14.572Z,15.00
2018-01-20T04:23:15.037Z,14.20
2018-01-20T04:24:14.393Z,15.40
2018-01-20T04:25:15.030Z,15.50
2018-01-20T04:26:15.724Z,16.20
2018-01-20T04:27:15.454Z,16.90
2018-01-20T04:28:15.266Z,17.60
2018-01-20T04:29:14.730Z,16.00
2018-01-20T04:30:15.250Z,16.50
2018-01-20T04:31:14.981Z,18.20
2018-01-20T04:32:15.458Z,16.60
2018-01-20T04:33:14.602Z,17.60
2018-01-20T04:34:14.743Z,17.30
2018-01-20T04:35:15.058Z,17.30
2018-01-20T04:36:15.418Z,17.50
2018-01-20T04:37:15.074Z,18.00
2018-01-20T04:38:14.653Z,19.00
2018-01-20T04:39:15.075Z,17.80
2018-01-20T04:40:14.533Z,17.20
2018-01-20T04:41:14.940Z,16.10
2018-01-20T04:42:15.867Z,16.10
2018-01-20T04:43:36.711Z,17.20
2018-01-20T04:44:37.285Z,18.00
2018-01-20T04:45:37.745Z,17.90
2018-01-20T04:46:37.203Z,17.70
2018-01-20T04:47:37.805Z,16.10
2018-01-20T04:48:37.054Z,17.40
2018-01-20T04:49:37.851Z,17.10
2018-01-20T04:50:37.292Z,17.60
2018-01-20T04:51:38.673Z,17.00
2018-01-20T04:52:37.069Z,17.90
2018-01-20T04:53:37.780Z,17.70
2018-01-20T04:54:37.308Z,18.40
2018-01-20T04:55:37.755Z,17.00
2018-01-20T04:56:37.023Z,19.40
2018-01-20T04:57:37.840Z,18.80
2018-01-20T04:58:37.432Z,18.30
2018-01-20T04:59:37.123Z,19.50
2018-01-20T05:00:37.995Z,18.80
2018-01-20T05:02:04.947Z,19.80
2018-01-20T05:03:05.628Z,18.20
2018-01-20T05:04:05.045Z,19.00
2018-01-20T05:05:05.410Z,19.60
2018-01-20T05:06:05.643Z,17.60
2018-01-20T05:07:05.877Z,19.40
2018-01-20T05:08:05.374Z,19.40
2018-01-20T05:09:05.821Z,19.80
2018-01-20T05:10:04.911Z,18.60
2018-01-20T05:11:05.242Z,21.20
2018-01-20T05:12:05.689Z,20.60
2018-01-20T05:13:05.260Z,19.50
2018-01-20T05:14:05.521Z,20.10
2018-01-20T05:15:04.929Z,20.70
2018-01-20T05:16:05.398Z,19.60
2018-01-20T05:17:05.746Z,19.80
2018-01-20T05:18:26.553Z,19.80
2018-01-20T05:19:26.750Z,21.00
2018-01-20T05:20:27.459Z,21.00
2018-01-20T05:21:27.159Z,20.90
2018-01-20T05:22:26.822Z,21.10
2018-01-20T05:23:27.458Z,21.40
2018-01-20T05:24:27.229Z,19.50
2018-01-20T05:25:26.839Z,20.60
2018-01-20T05:26:26.134Z,21.70
2018-01-20T05:27:26.620Z,20.80
2018-01-20T05:28:26.800Z,20.60
2018-01-20T05:29:27.526Z,20.70
2018-01-20T05:30:27.163Z,20.20
2018-01-20T05:31:26.524Z,20.40
2018-01-20T05:32:27.115Z,21.40
2018-01-20T05:33:26.747Z,20.40
2018-01-20T05:34:27.117Z,18.90
2018-01-20T05:35:26.356Z,20.90
2018-01-20T05:36:26.513Z,19.00
2018-01-20T05:37:26.708Z,20.20
2018-01-20T05:38:48.141Z,16.60
2018-01-20T05:40:10.389Z,17.40
2018-01-20T05:41:10.842Z,19.50
2018-01-20T05:42:52.785Z,19.00
2018-01-20T05:43:53.655Z,20.20
2018-01-20T05:45:14.191Z,21.90
2018-01-20T05:46:14.618Z,20.00
2018-01-20T05:47:14.422Z,20.90
2018-01-20T05:48:14.667Z,21.70
2018-01-20T05:49:13.828Z,20.70
2018-01-20T05:50:14.694Z,20.60
2018-01-20T05:51:14.250Z,21.50
2018-01-20T05:52:14.635Z,22.20
2018-01-20T05:53:14.901Z,20.70
2018-01-20T05:54:14.671Z,19.20
2018-01-20T05:55:35.036Z,22.10
2018-01-20T05:56:35.739Z,22.20
2018-01-20T05:57:35.185Z,21.00
2018-01-20T05:58:35.839Z,19.10
2018-01-20T05:59:56.039Z,22.00
2018-01-20T06:00:56.338Z,21.30
2018-01-20T06:01:56.927Z,20.20
2018-01-20T06:02:56.428Z,21.40
2018-01-20T06:04:17.693Z,21.70
2018-01-20T06:05:18.431Z,22.30
2018-01-20T06:06:19.362Z,21.80
2018-01-20T06:07:18.698Z,22.50
2018-01-20T06:08:18.065Z,21.60
2018-01-20T06:09:18.699Z,21.70
2018-01-20T06:10:38.891Z,21.90
2018-01-20T06:11:39.593Z,22.30
2018-01-20T06:12:39.975Z,22.10
2018-01-20T06:13:39.705Z,21.90
2018-01-20T06:14:41.355Z,19.90
2018-01-20T06:16:02.970Z,22.50
2018-01-20T06:17:03.724Z,20.90
2018-01-20T06:18:03.058Z,18.60
2018-01-20T06:19:03.676Z,22.50
2018-01-20T06:20:24.140Z,22.00
2018-01-20T06:21:24.475Z,21.80
2018-01-20T06:22:24.815Z,22.60
2018-01-20T06:23:24.390Z,24.20
2018-01-20T06:24:24.866Z,23.60
2018-01-20T06:25:23.916Z,22.40
2018-01-20T06:26:24.661Z,23.10
2018-01-20T06:27:23.984Z,24.40
2018-01-20T06:28:24.794Z,23.70
2018-01-20T06:29:24.574Z,23.20
2018-01-20T06:30:25.341Z,23.70
2018-01-20T06:31:24.700Z,22.90
2018-01-20T06:32:24.849Z,24.20
2018-01-20T06:33:24.874Z,24.20
2018-01-20T06:34:24.314Z,23.70
2018-01-20T06:35:24.971Z,23.10
2018-01-20T06:36:24.060Z,23.60
2018-01-20T06:37:25.520Z,24.90
2018-01-20T06:38:25.589Z,23.00
2018-01-20T06:39:24.919Z,23.20
2018-01-20T06:40:24.266Z,21.40
2018-01-20T06:41:24.700Z,23.60
2018-01-20T06:42:25.431Z,20.30
2018-01-20T06:43:25.190Z,18.60
2018-01-20T06:44:25.151Z,22.50
2018-01-20T06:45:24.366Z,23.00
2018-01-20T06:46:25.083Z,21.10
2018-01-20T06:47:24.406Z,19.30
2018-01-20T06:48:24.829Z,21.70
2018-01-20T06:49:24.174Z,21.50
2018-01-20T06:50:24.751Z,23.30
2018-01-20T06:51:25.038Z,22.50
2018-01-20T06:52:24.231Z,22.40
2018-01-20T06:53:24.447Z,20.80
2018-01-20T06:54:24.947Z,22.80
2018-01-20T06:55:24.556Z,19.80
2018-01-20T06:56:25.175Z,21.30
2018-01-20T06:57:24.802Z,19.40
2018-01-20T06:58:24.614Z,20.00
2018-01-20T06:59:25.259Z,21.20
2018-01-20T07:00:24.945Z,21.90
2018-01-20T07:01:45.805Z,20.90
2018-01-20T07:02:46.441Z,20.20
2018-01-20T07:03:46.233Z,19.80
2018-01-20T07:04:45.485Z,21.30
2018-01-20T07:05:46.066Z,19.10
2018-01-20T07:07:08.818Z,20.10
2018-01-20T07:08:08.173Z,20.60
2018-01-20T07:09:08.556Z,19.60
2018-01-20T07:10:08.641Z,19.10
2018-01-20T07:11:08.514Z,19.80
2018-01-20T07:12:07.996Z,20.40
2018-01-20T07:13:08.987Z,19.70
2018-01-20T07:14:08.349Z,17.60
2018-01-20T07:15:07.711Z,18.40
2018-01-20T07:16:08.541Z,19.00
2018-01-20T07:17:08.264Z,19.50
2018-01-20T07:18:08.736Z,20.80
2018-01-20T07:19:07.901Z,18.80
2018-01-20T07:20:08.496Z,18.30
2018-01-20T07:21:08.045Z,18.70
2018-01-20T07:22:08.904Z,16.50
2018-01-20T07:23:08.255Z,18.10
2018-01-20T07:24:30.428Z,17.50
2018-01-20T07:25:31.709Z,19.10
2018-01-20T07:26:31.210Z,18.90
2018-01-20T07:27:30.894Z,17.50
2018-01-20T07:28:31.658Z,19.10
2018-01-20T07:29:31.599Z,17.20
2018-01-20T07:30:52.705Z,16.50
2018-01-20T07:31:53.278Z,16.10
2018-01-20T07:32:52.929Z,17.30
2018-01-20T07:33:53.608Z,16.60
2018-01-20T07:34:52.718Z,17.60
2018-01-20T07:35:53.123Z,15.20
2018-01-20T07:36:52.527Z,16.40
2018-01-20T07:37:52.746Z,16.00
2018-01-20T07:38:53.559Z,18.70
2018-01-20T07:39:53.059Z,17.30
2018-01-20T07:40:53.595Z,18.40
2018-01-20T07:41:53.326Z,16.40
2018-01-20T07:43:14.133Z,18.00
2018-01-20T07:44:14.514Z,15.30
2018-01-20T07:45:14.595Z,16.90
2018-01-20T07:46:15.510Z,16.40
2018-01-20T07:47:15.189Z,18.70
2018-01-20T07:48:14.464Z,16.00
2018-01-20T07:49:15.015Z,17.50
2018-01-20T07:50:17.368Z,16.90
2018-01-20T07:51:15.031Z,17.30
2018-01-20T07:52:35.993Z,16.30
2018-01-20T07:53:36.435Z,16.50
2018-01-20T07:54:36.901Z,16.20
2018-01-20T07:55:37.774Z,18.00
2018-01-20T07:56:36.310Z,18.70
2018-01-20T07:57:36.782Z,17.60
2018-01-20T07:58:42.028Z,18.70
2018-01-20T07:59:37.141Z,18.60
2018-01-20T08:00:37.148Z,18.30
2018-01-20T08:01:36.992Z,18.40
2018-01-20T08:02:36.714Z,18.30
2018-01-20T08:03:36.583Z,17.60
2018-01-20T08:04:36.088Z,16.90
2018-01-20T08:05:36.802Z,14.60
2018-01-20T08:06:58.922Z,13.10
2018-01-20T08:07:59.531Z,14.00
2018-01-20T08:08:58.990Z,16.00
2018-01-20T08:09:58.850Z,17.00
2018-01-20T08:10:59.243Z,17.40
2018-01-20T08:11:58.796Z,17.90
2018-01-20T08:12:59.866Z,15.60
2018-01-20T08:13:59.918Z,18.30
2018-01-20T08:14:59.573Z,17.00
2018-01-20T08:15:59.522Z,17.50
2018-01-20T08:16:59.269Z,17.10
2018-01-20T08:17:59.223Z,14.70
2018-01-20T08:18:59.027Z,15.40
2018-01-20T08:19:58.527Z,15.50
2018-01-20T08:20:59.569Z,14.00
2018-01-20T08:21:58.999Z,14.40
2018-01-20T08:22:58.540Z,15.90
2018-01-20T08:23:59.032Z,16.30
2018-01-20T08:24:58.812Z,13.50
2018-01-20T08:25:59.436Z,12.80
2018-01-20T08:26:58.772Z,13.50
2018-01-20T08:27:59.318Z,13.50
2018-01-20T08:28:58.693Z,14.40
2018-01-20T08:29:59.236Z,15.70
2018-01-20T08:30:58.756Z,15.40
2018-01-20T08:31:59.728Z,14.30
2018-01-20T08:32:59.637Z,14.10
2018-01-20T08:33:59.441Z,14.00
2018-01-20T08:34:58.848Z,15.50
2018-01-20T08:35:58.832Z,14.30
2018-01-20T08:36:59.333Z,16.20
2018-01-20T08:37:59.478Z,16.10
2018-01-20T08:38:59.066Z,13.90
2018-01-20T08:39:58.756Z,14.90
2018-01-20T08:40:58.288Z,15.40
2018-01-20T08:41:58.897Z,15.60
2018-01-20T08:42:59.382Z,14.30
2018-01-20T08:43:59.108Z,15.70
2018-01-20T08:44:59.149Z,12.20
2018-01-20T08:45:58.621Z,13.20
2018-01-20T08:46:59.264Z,14.70
2018-01-20T08:47:58.877Z,13.00
2018-01-20T08:48:58.839Z,13.60
2018-01-20T08:49:59.998Z,13.00
2018-01-20T08:50:59.305Z,13.70
2018-01-20T08:51:59.495Z,14.80
2018-01-20T08:52:59.287Z,15.10
2018-01-20T08:53:59.811Z,12.20
2018-01-20T08:54:59.926Z,12.20
2018-01-20T08:55:59.567Z,10.10
2018-01-20T08:56:59.977Z,12.10
2018-01-20T08:57:59.668Z,12.00
2018-01-20T08:58:59.600Z,13.10
2018-01-20T09:00:00.086Z,13.30
2018-01-20T09:00:58.703Z,14.50
2018-01-20T09:01:59.520Z,14.30
2018-01-20T09:03:21.271Z,14.90
2018-01-20T09:04:20.788Z,14.00
2018-01-20T09:05:21.754Z,14.60
2018-01-20T09:06:21.609Z,13.10
2018-01-20T09:07:21.626Z,12.00
2018-01-20T09:08:21.152Z,13.80
2018-01-20T09:09:21.656Z,12.70
2018-01-20T09:10:20.867Z,13.90
2018-01-20T09:11:21.174Z,14.50
2018-01-20T09:12:21.446Z,15.00
2018-01-20T09:13:21.426Z,14.60
2018-01-20T09:14:21.336Z,14.20
2018-01-20T09:15:20.587Z,14.70
2018-01-20T09:16:21.512Z,15.00
2018-01-20T09:17:21.758Z,14.90
2018-01-20T09:18:22.326Z,15.00
2018-01-20T09:19:20.636Z,15.00
2018-01-20T09:20:21.163Z,14.70
2018-01-20T09:21:20.589Z,14.70
2018-01-20T09:22:21.197Z,13.60
2018-01-20T09:23:21.232Z,15.50
2018-01-20T09:24:20.950Z,15.40
2018-01-20T09:25:21.307Z,14.80
2018-01-20T09:26:21.132Z,14.80
2018-01-20T09:27:21.206Z,14.40
2018-01-20T09:28:20.766Z,13.30
2018-01-20T09:29:21.571Z,13.30
2018-01-20T09:30:42.316Z,13.90
2018-01-20T09:31:42.987Z,15.50
2018-01-20T09:32:43.799Z,15.30
2018-01-20T09:33:43.571Z,14.80
2018-01-20T09:35:04.666Z,14.20
2018-01-20T09:36:05.122Z,13.40
2018-01-20T09:37:05.657Z,14.40
2018-01-20T09:38:05.552Z,14.60
2018-01-20T09:39:05.088Z,15.10
2018-01-20T09:40:05.738Z,15.60
2018-01-20T09:41:05.770Z,15.50
2018-01-20T09:42:05.643Z,16.20
2018-01-20T09:43:06.822Z,14.10
2018-01-20T09:44:05.123Z,14.80
2018-01-20T09:45:05.761Z,14.20
2018-01-20T09:46:05.519Z,13.90
2018-01-20T09:47:05.364Z,14.70
2018-01-20T09:48:05.099Z,13.60
2018-01-20T09:49:05.842Z,14.30
2018-01-20T09:50:05.749Z,14.30
2018-01-20T09:51:05.228Z,14.50
2018-01-20T09:52:06.202Z,14.30
2018-01-20T09:53:06.176Z,14.20
2018-01-20T09:54:05.846Z,12.80
2018-01-20T09:55:05.616Z,15.00
2018-01-20T09:56:04.995Z,14.50
2018-01-20T09:57:06.688Z,14.50
2018-01-20T09:58:05.425Z,14.90
2018-01-20T09:59:04.778Z,14.20
2018-01-20T10:00:05.689Z,12.50
2018-01-20T10:01:27.587Z,12.70
2018-01-20T10:02:27.789Z,11.60
2018-01-20T10:03:27.628Z,12.60
2018-01-20T10:04:27.339Z,12.20
2018-01-20T10:05:27.265Z,12.90
2018-01-20T10:06:28.059Z,13.70
2018-01-20T10:07:28.026Z,13.20
2018-01-20T10:08:27.522Z,13.40
2018-01-20T10:09:28.100Z,13.50
2018-01-20T10:10:49.156Z,11.20
2018-01-20T10:11:50.250Z,11.90
2018-01-20T10:12:50.034Z,12.20
2018-01-20T10:13:49.161Z,10.50
2018-01-20T10:15:11.311Z,10.30
2018-01-20T10:16:33.838Z,8.50
2018-01-20T10:17:34.590Z,9.20
2018-01-20T10:18:34.047Z,10.60
2018-01-20T10:19:33.245Z,9.80
2018-01-20T10:20:33.907Z,10.80
2018-01-20T10:21:33.564Z,10.40
2018-01-20T10:22:54.953Z,10.90
2018-01-20T10:24:17.769Z,10.40
2018-01-20T10:25:18.800Z,10.60
2018-01-20T10:26:39.738Z,11.00
2018-01-20T10:28:01.175Z,9.80
2018-01-20T10:29:01.883Z,11.40
2018-01-20T10:30:01.483Z,11.10
2018-01-20T10:31:02.767Z,10.80
2018-01-20T10:32:01.926Z,11.70
2018-01-20T10:33:01.501Z,11.20
2018-01-20T10:34:25.042Z,11.70
2018-01-20T10:35:26.397Z,11.30
2018-01-20T10:36:25.766Z,11.30
2018-01-20T10:37:25.609Z,11.00
2018-01-20T10:38:24.933Z,10.30
2018-01-20T10:39:25.878Z,10.60
2018-01-20T10:40:25.920Z,10.30
2018-01-20T10:41:25.819Z,10.70
2018-01-20T10:42:25.837Z,10.50
2018-01-20T10:43:25.576Z,10.50
2018-01-20T10:44:27.001Z,10.90
2018-01-20T10:45:26.198Z,9.20
2018-01-20T10:46:25.832Z,9.90
2018-01-20T10:47:25.237Z,10.10
2018-01-20T10:48:26.260Z,10.60
2018-01-20T10:49:25.998Z,9.50
2018-01-20T10:50:25.615Z,10.90
2018-01-20T10:51:25.163Z,10.40
2018-01-20T10:52:26.042Z,10.90
2018-01-20T10:53:26.375Z,10.70
2018-01-20T10:54:47.828Z,10.90
2018-01-20T10:55:48.283Z,10.90
2018-01-20T10:56:48.364Z,10.30
2018-01-20T10:57:49.812Z,11.30
2018-01-20T10:58:48.216Z,11.30
2018-01-20T10:59:52.448Z,11.50
2018-01-20T11:00:48.993Z,11.50
2018-01-20T11:01:48.818Z,11.90
2018-01-20T11:02:48.494Z,13.00
2018-01-20T11:03:48.024Z,12.10
2018-01-20T11:05:10.710Z,12.30
2018-01-20T11:06:12.368Z,12.30
2018-01-20T11:07:32.563Z,13.00
2018-01-20T11:08:33.209Z,13.50
2018-01-20T11:09:32.641Z,12.90
2018-01-20T11:10:33.184Z,12.80
2018-01-20T11:11:56.091Z,14.70
2018-01-20T11:12:55.134Z,15.30
2018-01-20T11:13:56.671Z,14.90
2018-01-20T11:14:55.599Z,14.70
2018-01-20T11:15:55.640Z,15.00
2018-01-20T11:16:55.316Z,14.70
2018-01-20T11:17:54.973Z,14.60
2018-01-20T11:18:54.534Z,15.40
2018-01-20T11:19:56.087Z,15.90
2018-01-20T11:20:54.994Z,14.80
2018-01-20T11:21:54.871Z,14.50
2018-01-20T11:22:54.623Z,15.40
2018-01-20T11:23:55.667Z,15.70
2018-01-20T11:24:55.599Z,16.00
2018-01-20T11:25:55.683Z,15.00
2018-01-20T11:26:56.154Z,14.50
2018-01-20T11:27:54.911Z,13.80
2018-01-20T11:28:55.577Z,12.70
2018-01-20T11:29:56.811Z,13.00
2018-01-20T11:30:55.893Z,12.60
2018-01-20T11:31:56.321Z,12.60
2018-01-20T11:32:56.826Z,12.90
2018-01-20T11:33:54.401Z,11.50
2018-01-20T11:34:56.309Z,12.20
2018-01-20T11:35:55.256Z,12.20
2018-01-20T11:37:25.333Z,11.90
2018-01-20T11:38:25.309Z,11.60
2018-01-20T11:39:25.378Z,13.80
2018-01-20T11:40:25.541Z,13.90
2018-01-20T11:41:46.389Z,14.80
2018-01-20T11:42:46.762Z,13.40
2018-01-20T11:44:07.967Z,13.90
2018-01-20T11:45:08.777Z,12.10
2018-01-20T11:46:08.544Z,12.20
2018-01-20T11:47:09.031Z,13.40
2018-01-20T11:48:08.818Z,13.90
2018-01-20T11:49:08.887Z,11.30
2018-01-20T11:50:09.351Z,11.90
2018-01-20T11:51:09.246Z,12.80
2018-01-20T11:52:09.341Z,11.70
2018-01-20T11:53:08.359Z,11.60
2018-01-20T11:54:08.785Z,12.70
2018-01-20T11:55:08.317Z,11.60
2018-01-20T11:56:08.016Z,12.50
2018-01-20T11:57:08.850Z,11.40
2018-01-20T11:58:36.165Z,10.40
2018-01-20T11:59:36.089Z,11.60
2018-01-20T12:00:35.750Z,12.30
2018-01-20T12:01:57.360Z,12.40
2018-01-20T12:02:58.018Z,12.40
2018-01-20T12:03:58.987Z,11.40
2018-01-20T12:05:00.066Z,11.40
2018-01-20T12:05:59.097Z,11.20
2018-01-20T12:06:57.715Z,11.20
2018-01-20T12:07:57.754Z,11.50
2018-01-20T12:08:57.694Z,11.90
2018-01-20T12:09:57.524Z,11.90
2018-01-20T12:10:57.157Z,12.00
2018-01-20T12:11:57.974Z,11.80
2018-01-20T12:12:57.947Z,11.70
2018-01-20T12:13:58.591Z,10.80
2018-01-20T12:14:57.405Z,10.90
2018-01-20T12:15:57.694Z,10.10
2018-01-20T12:16:57.316Z,10.60
2018-01-20T12:17:58.862Z,10.60
2018-01-20T12:19:33.035Z,10.60
2018-01-20T12:19:58.560Z,10.80
2018-01-20T12:20:58.046Z,10.60
2018-01-20T12:21:58.919Z,9.80
2018-01-20T12:22:58.117Z,9.30
2018-01-20T12:23:57.490Z,9.60
2018-01-20T12:24:57.403Z,10.50
2018-01-20T12:25:57.413Z,9.40
2018-01-20T12:26:57.349Z,9.00
2018-01-20T12:28:41.085Z,9.60
2018-01-20T12:29:41.227Z,9.80
2018-01-20T12:30:40.888Z,9.60
2018-01-20T12:31:41.384Z,9.80
2018-01-20T12:32:40.962Z,9.80
2018-01-20T12:33:41.604Z,9.10
2018-01-20T12:34:41.274Z,8.40
2018-01-20T12:35:41.150Z,9.20
2018-01-20T12:36:41.168Z,9.00
2018-01-20T12:37:41.160Z,9.20
2018-01-20T12:38:41.411Z,9.40
2018-01-20T12:39:41.330Z,9.00
2018-01-20T12:40:41.097Z,9.90
2018-01-20T12:41:41.663Z,9.10
2018-01-20T12:43:04.236Z,9.40
2018-01-20T12:44:03.918Z,8.70
2018-01-20T12:45:03.407Z,8.30
2018-01-20T12:46:03.120Z,7.80
2018-01-20T12:47:03.983Z,8.10
2018-01-20T12:48:03.548Z,8.30
2018-01-20T12:49:03.949Z,8.40
2018-01-20T12:50:03.379Z,7.60
2018-01-20T12:51:03.092Z,7.30
2018-01-20T12:52:05.442Z,7.60
2018-01-20T12:53:03.548Z,7.90
2018-01-20T12:54:04.002Z,7.50
2018-01-20T12:55:03.640Z,8.00
2018-01-20T12:56:25.896Z,7.10
2018-01-20T12:57:26.476Z,7.50
2018-01-20T12:58:26.612Z,7.40
2018-01-20T12:59:26.141Z,7.40
2018-01-20T13:00:26.807Z,7.50
2018-01-20T13:01:27.872Z,6.90
2018-01-20T13:02:26.592Z,7.10
2018-01-20T13:03:26.260Z,6.80
2018-01-20T13:04:26.767Z,6.70
2018-01-20T13:05:26.670Z,6.50
2018-01-20T13:06:26.469Z,7.40
2018-01-20T13:07:26.486Z,7.30
2018-01-20T13:08:29.155Z,6.70
2018-01-20T13:09:26.628Z,6.60
2018-01-20T13:10:26.102Z,6.80
2018-01-20T13:11:28.322Z,7.30
2018-01-20T13:12:27.414Z,6.30
2018-01-20T13:13:25.790Z,6.00
2018-01-20T13:14:26.315Z,6.50
2018-01-20T13:15:26.057Z,7.00
2018-01-20T13:16:26.807Z,6.60